Time;durP1;ratioP1;P1;durP2;ratioP2;P2;SDS_P1;SDS_P2;PMS_P1;PMS_P2;Temp;Humidity;BMP_temperature;BMP_pressure;BME280_temperature;BME280_humidity;BME280_pressure;Samples;Min_cycle;Max_cycle;Signal;HPM_P1;HPM_P2
2021/06/05 00:02:27;;;;;;;12.45;9.05;;;;;;;13.82;100.00;98150.41;5046711;28;20538;-77
2021/06/05 00:04:55;;;;;;;13.90;8.98;;;;;;;13.76;100.00;98148.13;5041356;28;20408;-78
2021/06/05 00:07:21;;;;;;;18.00;9.70;;;;;;;13.69;100.00;98135.22;5041903;28;20028;-78
2021/06/05 00:09:47;;;;;;;16.48;9.32;;;;;;;13.53;100.00;98114.66;5053534;28;20094;-75
2021/06/05 00:12:17;;;;;;;13.48;9.55;;;;;;;13.71;100.00;98146.72;5066505;28;20036;-75
2021/06/05 00:14:43;;;;;;;13.63;9.35;;;;;;;13.67;100.00;98145.19;5035798;28;20056;-75
2021/06/05 00:17:09;;;;;;;15.07;10.23;;;;;;;13.59;100.00;98140.31;5065626;28;20437;-75
2021/06/05 00:19:34;;;;;;;17.55;11.05;;;;;;;13.51;100.00;98139.91;5069422;28;20021;-75
2021/06/05 00:22:00;;;;;;;12.10;9.75;;;;;;;13.30;100.00;98111.75;5067107;28;20032;-75
2021/06/05 00:24:25;;;;;;;15.50;11.18;;;;;;;13.35;100.00;98118.53;5041996;28;20381;-75
2021/06/05 00:26:53;;;;;;;20.77;10.23;;;;;;;13.30;100.00;98123.34;5068306;28;20025;-75
2021/06/05 00:29:18;;;;;;;13.43;10.38;;;;;;;13.29;100.00;98132.38;5063283;28;20028;-75
2021/06/05 00:31:44;;;;;;;22.45;10.63;;;;;;;13.26;100.00;98137.94;5061621;28;20029;-75
2021/06/05 00:34:10;;;;;;;15.63;10.30;;;;;;;13.22;100.00;98135.56;5054076;28;20554;-74
2021/06/05 00:36:36;;;;;;;18.70;10.18;;;;;;;13.19;100.00;98133.94;5066579;28;20033;-75
2021/06/05 00:39:02;;;;;;;18.92;10.40;;;;;;;13.07;100.00;98122.06;5053680;28;20091;-75
2021/06/05 00:41:28;;;;;;;23.40;10.77;;;;;;;13.02;100.00;98128.69;5035733;28;20033;-75
2021/06/05 00:43:57;;;;;;;20.60;10.95;;;;;;;12.99;100.00;98131.56;5049507;28;20036;-75
2021/06/05 00:46:25;;;;;;;20.70;11.43;;;;;;;12.95;100.00;98128.22;5034934;28;20433;-75
2021/06/05 00:48:51;;;;;;;15.60;11.25;;;;;;;12.89;100.00;98122.34;5036196;28;20032;-75
2021/06/05 00:51:17;;;;;;;20.15;11.80;;;;;;;12.85;100.00;98132.44;5065499;28;20016;-75
2021/06/05 00:53:43;;;;;;;24.67;11.50;;;;;;;12.78;100.00;98114.13;5039861;28;20030;-75
2021/06/05 00:56:11;;;;;;;20.00;11.02;;;;;;;12.77;100.00;98117.75;5066156;28;20104;-75
2021/06/05 00:58:36;;;;;;;16.55;11.82;;;;;;;12.61;100.00;98101.75;5050313;28;20024;-75
2021/06/05 01:01:37;;;;;;;23.15;12.18;;;;;;;12.60;100.00;98116.13;5040910;28;20484;-76
2021/06/05 01:04:03;;;;;;;19.05;11.57;;;;;;;12.49;100.00;98097.09;5070269;28;20340;-75
2021/06/05 01:07:13;;;;;;;16.50;11.10;;;;;;;12.60;100.00;98113.44;5063470;28;20021;-75
2021/06/05 01:09:57;;;;;;;16.85;11.90;;;;;;;12.64;100.00;98114.13;5036906;28;20041;-75
2021/06/05 01:12:41;;;;;;;20.20;11.00;;;;;;;12.59;100.00;98113.50;5032130;28;20052;-75
2021/06/05 01:15:14;;;;;;;17.42;11.23;;;;;;;12.50;100.00;98114.94;5056578;28;20116;-75
2021/06/05 01:17:43;;;;;;;13.80;10.43;;;;;;;12.49;100.00;98116.75;5045493;28;20052;-75
2021/06/05 01:20:15;;;;;;;15.07;11.00;;;;;;;12.48;100.00;98117.72;5048032;28;20032;-75
2021/06/05 01:22:59;;;;;;;15.30;10.73;;;;;;;12.48;100.00;98120.41;5065638;28;20151;-75
2021/06/05 01:25:46;;;;;;;20.48;10.52;;;;;;;12.54;100.00;98124.53;5059798;28;20025;-75
2021/06/05 01:28:17;;;;;;;19.20;10.63;;;;;;;12.47;100.00;98099.03;5035906;28;20048;-75
2021/06/05 01:30:46;;;;;;;13.75;10.32;;;;;;;12.60;100.00;98124.16;5036623;28;20029;-75
2021/06/05 01:33:14;;;;;;;14.35;10.73;;;;;;;12.53;100.00;98104.00;5051185;28;20038;-75
2021/06/05 01:35:40;;;;;;;16.35;9.93;;;;;;;12.73;100.00;98116.22;5049377;28;20052;-75
2021/06/05 01:38:08;;;;;;;18.63;10.43;;;;;;;12.68;100.00;98110.25;5047368;28;20072;-75
2021/06/05 01:40:33;;;;;;;12.85;9.70;;;;;;;12.76;100.00;98121.41;5047226;28;20033;-75
2021/06/05 01:43:02;;;;;;;13.95;9.55;;;;;;;12.80;100.00;98117.56;5041654;28;20039;-75
2021/06/05 01:45:31;;;;;;;14.30;9.32;;;;;;;12.80;100.00;98117.56;5046448;28;20023;-75
2021/06/05 01:47:57;;;;;;;19.02;8.40;;;;;;;12.73;100.00;98111.72;5054366;28;20062;-75
2021/06/05 01:50:25;;;;;;;11.55;8.05;;;;;;;12.64;100.00;98100.69;5059914;28;20025;-75
2021/06/05 01:52:52;;;;;;;12.75;8.80;;;;;;;12.78;100.00;98112.28;5042242;28;20033;-75
2021/06/05 01:55:21;;;;;;;15.20;8.93;;;;;;;12.77;100.00;98118.63;5047233;28;20025;-75
2021/06/05 01:57:51;;;;;;;13.70;8.90;;;;;;;12.70;100.00;98098.50;5041329;28;20484;-75
2021/06/05 02:00:24;;;;;;;11.68;8.35;;;;;;;12.77;100.00;98109.69;5041204;28;20024;-75
2021/06/05 02:02:51;;;;;;;16.50;8.68;;;;;;;12.76;100.00;98111.53;5041691;28;20067;-75
2021/06/05 02:05:18;;;;;;;21.80;8.70;;;;;;;12.65;100.00;98097.03;5043398;28;20115;-75
2021/06/05 02:07:44;;;;;;;16.65;8.18;;;;;;;12.55;100.00;98085.16;5024686;28;20043;-75
2021/06/05 02:10:12;;;;;;;15.45;9.25;;;;;;;12.57;100.00;98104.69;5044124;28;20062;-75
2021/06/05 02:12:38;;;;;;;21.05;10.13;;;;;;;12.54;100.00;98110.25;5049422;28;20031;-75
2021/06/05 02:15:37;;;;;;;15.43;9.85;;;;;;;12.47;100.00;98110.63;5055281;28;20062;-75
2021/06/05 02:18:06;;;;;;;16.02;9.32;;;;;;;12.42;100.00;98115.41;5043871;28;20112;-75
2021/06/05 02:20:37;;;;;;;14.35;9.50;;;;;;;12.41;100.00;98119.03;5046548;28;20020;-75
2021/06/05 02:23:06;;;;;;;19.73;10.60;;;;;;;12.31;100.00;98098.22;5049816;28;20028;-75
2021/06/05 02:25:32;;;;;;;14.20;9.20;;;;;;;12.23;100.00;98097.81;5029923;28;20126;-75
2021/06/05 02:27:59;;;;;;;14.85;9.30;;;;;;;12.27;100.00;98112.78;5044378;28;20020;-75
2021/06/05 02:30:26;;;;;;;13.23;9.18;;;;;;;12.24;100.00;98107.59;5044673;28;20078;-75
2021/06/05 02:32:52;;;;;;;15.90;8.98;;;;;;;12.22;100.00;98102.31;5045760;28;20032;-75
2021/06/05 02:35:24;;;;;;;12.32;9.10;;;;;;;12.06;100.00;98101.50;5045926;28;20037;-75
2021/06/05 02:37:49;;;;;;;13.88;8.48;;;;;;;12.07;100.00;98116.63;5060292;28;20053;-75
2021/06/05 02:40:20;;;;;;;15.85;8.52;;;;;;;12.03;100.00;98115.06;5043921;28;20491;-75
2021/06/05 02:42:45;;;;;;;14.40;8.13;;;;;;;11.91;100.00;98102.41;5053058;28;20622;-76
2021/06/05 02:45:34;;;;;;;12.95;8.30;;;;;;;11.94;100.00;98119.16;5053675;28;20111;-76
2021/06/05 02:48:01;;;;;;;12.88;9.07;;;;;;;11.99;100.00;98112.69;5045748;28;20537;-75
2021/06/05 02:50:35;;;;;;;15.38;9.00;;;;;;;11.97;100.00;98118.13;5026373;28;20033;-75
2021/06/05 02:53:00;;;;;;;13.48;9.43;;;;;;;11.86;100.00;98118.75;5061238;28;20039;-75
2021/06/05 02:55:45;;;;;;;12.68;8.77;;;;;;;11.94;100.00;98123.66;5043408;28;20028;-75
2021/06/05 02:58:13;;;;;;;14.48;8.57;;;;;;;11.94;100.00;98123.66;5031906;28;20039;-75
2021/06/05 03:00:42;;;;;;;19.40;8.98;;;;;;;11.96;100.00;98121.78;5043100;28;20111;-75
2021/06/05 03:03:10;;;;;;;9.82;7.72;;;;;;;11.92;100.00;98117.53;5047951;28;20104;-75
2021/06/05 03:05:36;;;;;;;11.70;8.65;;;;;;;11.93;100.00;98124.63;5036381;28;20021;-75
2021/06/05 03:08:03;;;;;;;16.73;9.73;;;;;;;11.91;100.00;98126.50;5050326;28;20052;-75
2021/06/05 03:10:33;;;;;;;18.75;9.68;;;;;;;11.80;100.00;98104.84;5045359;28;20100;-75
2021/06/05 03:13:00;;;;;;;25.92;12.43;;;;;;;11.93;100.00;98130.00;5069235;28;20082;-75
2021/06/05 03:15:27;;;;;;;35.15;15.45;;;;;;;11.93;100.00;98124.63;5043133;28;20020;-75
2021/06/05 03:17:53;;;;;;;32.25;13.50;;;;;;;11.93;100.00;98121.94;5045033;28;20056;-75
2021/06/05 03:20:21;;;;;;;33.13;13.70;;;;;;;11.94;100.00;98120.97;5045614;28;20037;-75
2021/06/05 03:22:47;;;;;;;23.73;12.68;;;;;;;11.87;100.00;98108.91;5068206;28;20047;-75
2021/06/05 03:25:14;;;;;;;29.40;14.25;;;;;;;11.96;100.00;98124.47;5035163;28;20028;-75
2021/06/05 03:27:39;;;;;;;24.67;11.60;;;;;;;11.97;100.00;98128.00;5034540;28;20074;-75
2021/06/05 03:30:07;;;;;;;21.45;10.43;;;;;;;12.03;100.00;98127.66;5053550;28;20044;-75
2021/06/05 03:32:33;;;;;;;23.23;11.50;;;;;;;12.04;100.00;98122.19;5053577;28;20028;-75
2021/06/05 03:34:58;;;;;;;24.88;12.57;;;;;;;12.06;100.00;98122.94;5046427;28;20035;-75
2021/06/05 03:37:24;;;;;;;19.85;12.57;;;;;;;12.12;100.00;98111.84;5056643;28;20499;-75
2021/06/05 03:39:49;;;;;;;16.70;10.60;;;;;;;12.10;100.00;98111.09;5071319;28;20077;-75
2021/06/05 03:42:15;;;;;;;17.67;10.35;;;;;;;12.19;100.00;98118.59;5052442;28;20099;-75
2021/06/05 03:44:42;;;;;;;12.73;9.32;;;;;;;12.24;100.00;98115.66;5054318;28;20041;-75
2021/06/05 03:47:08;;;;;;;15.73;8.18;;;;;;;12.26;100.00;98117.28;5028056;28;20044;-75
2021/06/05 03:49:33;;;;;;;12.40;8.30;;;;;;;12.36;100.00;98129.19;5063115;28;20016;-75
2021/06/05 03:52:00;;;;;;;13.05;8.27;;;;;;;12.31;100.00;98107.13;5065751;28;20107;-75
2021/06/05 03:54:25;;;;;;;15.60;7.93;;;;;;;12.51;100.00;98122.03;5060758;28;20024;-75
2021/06/05 03:56:51;;;;;;;14.95;8.85;;;;;;;12.57;100.00;98116.31;5049840;28;20024;-75
2021/06/05 03:59:16;;;;;;;16.38;9.07;;;;;;;12.66;100.00;98109.50;5062535;28;20369;-75
2021/06/05 04:01:42;;;;;;;16.52;8.20;;;;;;;12.83;100.00;98118.25;5066739;28;20075;-75
2021/06/05 04:04:07;;;;;;;12.85;7.65;;;;;;;12.95;100.00;98122.84;5035324;28;20488;-75
2021/06/05 04:06:33;;;;;;;12.73;9.35;;;;;;;13.06;100.00;98119.50;5056666;28;20476;-75
2021/06/05 04:08:59;;;;;;;16.33;10.20;;;;;;;13.16;100.00;98119.81;5046955;28;20494;-75
2021/06/05 04:11:28;;;;;;;17.05;10.50;;;;;;;13.31;100.00;98124.22;5041378;28;20568;-75
2021/06/05 04:13:54;;;;;;;23.05;9.77;;;;;;;13.44;100.00;98109.03;5041582;28;20430;-75
2021/06/05 04:16:22;;;;;;;16.75;9.63;;;;;;;13.49;100.00;98106.91;5038341;28;20099;-75
2021/06/05 04:18:48;;;;;;;23.30;11.13;;;;;;;13.73;100.00;98120.56;5053551;28;20036;-76
2021/06/05 04:21:16;;;;;;;22.52;9.88;;;;;;;13.74;100.00;98092.75;5050918;28;20385;-75
2021/06/05 04:23:42;;;;;;;14.55;9.90;;;;;;;13.91;100.00;98125.59;5045065;28;20024;-75
2021/06/05 04:26:09;;;;;;;20.85;11.20;;;;;;;14.10;100.00;98115.38;5037464;28;20100;-75
2021/06/05 04:28:36;;;;;;;18.58;10.65;;;;;;;14.42;100.00;98118.63;5028663;28;20107;-76
2021/06/05 04:31:02;;;;;;;17.65;9.45;;;;;;;14.70;100.00;98120.28;5043591;28;20123;-76
2021/06/05 04:33:28;;;;;;;11.38;8.93;;;;;;;14.89;100.00;98117.16;5048910;28;20033;-82
2021/06/05 04:35:56;;;;;;;18.13;9.30;;;;;;;15.13;100.00;98110.03;5032134;28;20461;-82
2021/06/05 04:38:22;;;;;;;23.95;8.98;;;;;;;15.40;97.48;98094.56;5040004;28;20053;-82
2021/06/05 04:40:48;;;;;;;19.42;9.40;;;;;;;15.80;95.94;98110.53;5032948;28;20441;-76
2021/06/05 04:43:17;;;;;;;15.88;8.70;;;;;;;15.85;94.07;98084.94;5046547;28;20112;-80
2021/06/05 04:45:44;;;;;;;15.13;8.20;;;;;;;16.32;93.08;98119.16;5037527;28;20104;-76
2021/06/05 04:48:10;;;;;;;13.98;7.70;;;;;;;17.08;88.15;98102.44;5046769;28;20107;-76
2021/06/05 04:50:37;;;;;;;9.93;7.90;;;;;;;18.42;79.52;98114.81;5025817;28;20179;-77
2021/06/05 04:53:03;;;;;;;12.55;6.72;;;;;;;20.43;70.53;98120.38;5042506;28;20037;-78
2021/06/05 04:55:29;;;;;;;12.88;7.43;;;;;;;21.04;66.48;98113.59;5064666;28;20377;-78
2021/06/05 04:57:56;;;;;;;12.60;6.45;;;;;;;22.72;59.73;98123.28;5060207;28;20017;-78
2021/06/05 05:00:27;;;;;;;8.57;5.80;;;;;;;24.53;52.97;98137.69;5028558;28;20104;-79
2021/06/05 05:02:53;;;;;;;12.57;5.78;;;;;;;26.15;48.27;98136.56;5063149;28;20377;-79
2021/06/05 05:05:19;;;;;;;23.25;9.15;;;;;;;27.24;45.00;98137.25;5039142;28;20040;-79
2021/06/05 05:07:49;;;;;;;22.20;10.70;;;;;;;28.17;42.46;98148.69;5053251;28;20024;-79
2021/06/05 05:10:16;;;;;;;19.17;9.68;;;;;;;29.05;40.08;98140.22;5041842;28;20387;-78
2021/06/05 05:12:42;;;;;;;17.90;7.97;;;;;;;29.84;38.40;98143.72;5027135;28;20103;-78
2021/06/05 05:15:08;;;;;;;12.40;7.65;;;;;;;30.35;36.74;98145.06;5059246;28;20021;-78
2021/06/05 05:17:34;;;;;;;11.25;7.25;;;;;;;30.39;35.91;98120.69;5044463;28;20032;-78
2021/06/05 05:20:05;;;;;;;12.52;7.07;;;;;;;29.80;37.02;98131.34;5044600;28;20032;-79
2021/06/05 05:22:30;;;;;;;21.08;7.97;;;;;;;30.63;35.88;98132.03;5064877;28;20036;-76
2021/06/05 05:24:56;;;;;;;13.13;7.90;;;;;;;31.14;35.17;98131.53;5045312;28;20028;-77
2021/06/05 05:27:21;;;;;;;11.90;6.95;;;;;;;30.84;35.26;98121.88;5042239;28;20382;-76
2021/06/05 05:29:47;;;;;;;11.80;6.65;;;;;;;31.77;33.94;98124.56;5057633;28;20029;-76
2021/06/05 05:32:13;;;;;;;10.75;6.38;;;;;;;32.39;32.69;98125.94;5047447;28;20021;-76
2021/06/05 05:34:38;;;;;;;8.80;6.40;;;;;;;32.84;32.13;98133.19;5050452;28;20025;-78
2021/06/05 05:37:04;;;;;;;16.02;7.25;;;;;;;32.57;32.75;98128.88;5047493;28;20048;-79
2021/06/05 05:39:29;;;;;;;14.32;6.80;;;;;;;33.47;31.67;98122.94;5044703;28;20028;-79
2021/06/05 05:41:55;;;;;;;19.10;6.70;;;;;;;33.94;30.48;98112.28;5068383;28;20025;-79
2021/06/05 05:44:21;;;;;;;12.30;6.32;;;;;;;33.87;30.63;98101.25;5048628;28;20435;-79
2021/06/05 05:46:48;;;;;;;12.80;6.63;;;;;;;34.39;29.94;98110.97;5060146;28;20029;-76
2021/06/05 05:49:14;;;;;;;25.60;10.77;;;;;;;33.39;30.48;98103.81;5068185;28;20137;-76
2021/06/05 05:51:40;;;;;;;11.25;6.70;;;;;;;33.20;31.34;98102.91;5064050;28;20029;-75
2021/06/05 05:54:05;;;;;;;13.45;6.63;;;;;;;33.37;30.83;98110.69;5016959;28;20025;-75
2021/06/05 05:56:34;;;;;;;13.30;7.22;;;;;;;34.23;30.13;98111.59;5032715;28;20037;-76
2021/06/05 05:59:00;;;;;;;20.98;8.68;;;;;;;34.39;29.27;98110.97;5016628;28;20037;-77
2021/06/05 06:01:27;;;;;;;16.33;7.28;;;;;;;34.87;29.22;98119.34;5033192;28;20558;-77
2021/06/05 06:03:56;;;;;;;12.02;6.90;;;;;;;34.92;28.54;98113.09;5055583;28;20067;-78
2021/06/05 06:06:22;;;;;;;13.82;6.78;;;;;;;34.43;29.78;98111.34;5043953;28;20378;-77
2021/06/05 06:08:48;;;;;;;9.63;7.53;;;;;;;34.01;30.28;98094.50;5040808;28;20029;-77
2021/06/05 06:11:14;;;;;;;10.20;5.78;;;;;;;34.44;29.47;98111.13;5052506;28;20039;-76
2021/06/05 06:13:40;;;;;;;14.30;6.03;;;;;;;34.51;29.62;98120.22;5052507;28;20426;-76
2021/06/05 06:16:10;;;;;;;21.17;6.95;;;;;;;33.99;30.18;98116.13;5052402;28;20573;-77
2021/06/05 06:18:40;;;;;;;10.25;5.65;;;;;;;33.85;30.72;98103.44;5044427;28;20032;-77
2021/06/05 06:21:08;;;;;;;19.38;11.23;;;;;;;34.18;30.01;98120.59;5052447;28;20032;-77
2021/06/05 06:23:39;;;;;;;17.50;14.70;;;;;;;33.14;31.77;98125.13;5052822;28;20070;-77
2021/06/05 06:26:08;;;;;;;8.77;6.57;;;;;;;32.67;32.22;98107.06;5070290;28;20028;-76
2021/06/05 06:28:36;;;;;;;12.75;6.05;;;;;;;33.63;31.06;98105.78;5070503;28;20052;-87
2021/06/05 06:31:03;;;;;;;11.20;5.90;;;;;;;34.15;30.19;98087.72;5029347;28;20031;-82
2021/06/05 06:33:29;;;;;;;8.35;5.45;;;;;;;32.36;31.11;98041.34;5037532;28;20048;-81
2021/06/05 06:35:55;;;;;;;7.15;6.13;;;;;;;34.04;29.73;98102.38;5022282;28;20033;-76
2021/06/05 06:38:37;;;;;;;55.85;32.75;;;;;;;33.37;30.70;98100.44;5032481;28;20047;-79
2021/06/05 06:41:06;;;;;;;35.78;27.70;;;;;;;33.73;30.46;98071.94;5032823;28;20498;-76
2021/06/05 06:43:32;;;;;;;15.27;5.80;;;;;;;33.63;30.44;98079.94;5031990;28;20103;-76
2021/06/05 06:46:08;;;;;;;11.60;5.88;;;;;;;35.09;28.69;98083.53;5032232;28;20547;-82
2021/06/05 06:48:34;;;;;;;16.05;9.88;;;;;;;34.61;28.85;98083.56;5032343;28;20116;-80
2021/06/05 06:51:00;;;;;;;10.70;7.85;;;;;;;34.34;29.31;98085.81;5031313;28;20032;-76
2021/06/05 06:53:26;;;;;;;12.77;8.98;;;;;;;33.65;29.85;98064.78;5049715;28;20029;-78
2021/06/05 06:55:51;;;;;;;8.90;5.53;;;;;;;34.15;28.93;98081.31;5031867;28;20059;-78
2021/06/05 06:58:17;;;;;;;6.32;5.15;;;;;;;34.25;29.64;98082.50;5031865;28;20035;-78
2021/06/05 07:00:45;;;;;;;24.38;6.85;;;;;;;34.45;29.20;98064.72;5031829;28;20028;-78
2021/06/05 07:03:11;;;;;;;14.68;7.22;;;;;;;34.77;28.65;98067.06;5031946;28;20032;-78
2021/06/05 07:05:37;;;;;;;8.88;5.22;;;;;;;34.72;28.41;98071.66;5048953;28;20427;-78
2021/06/05 07:08:14;;;;;;;17.38;6.80;;;;;;;34.51;28.94;98072.97;5049324;28;20488;-78
2021/06/05 07:10:40;;;;;;;9.65;5.82;;;;;;;35.58;27.11;98054.47;5031631;28;20029;-78
2021/06/05 07:13:06;;;;;;;23.02;5.93;;;;;;;36.06;27.58;98068.16;5031490;28;20053;-78
2021/06/05 07:15:32;;;;;;;10.82;5.72;;;;;;;35.24;27.86;98070.88;5031368;28;20077;-79
2021/06/05 07:17:57;;;;;;;7.80;5.65;;;;;;;35.72;27.82;98075.41;5049310;28;20087;-78
2021/06/05 07:20:23;;;;;;;10.50;4.82;;;;;;;36.70;26.53;98058.69;5049231;28;20139;-79
2021/06/05 07:22:49;;;;;;;16.67;7.22;;;;;;;36.94;26.34;98072.28;5031272;28;20127;-79
2021/06/05 07:25:14;;;;;;;19.02;5.45;;;;;;;37.07;25.68;98054.38;5031447;28;20028;-79
2021/06/05 07:27:40;;;;;;;11.32;5.55;;;;;;;37.44;25.46;98071.50;5031275;28;20476;-79
2021/06/05 07:30:07;;;;;;;7.93;5.15;;;;;;;37.53;24.29;98050.47;5049137;28;20025;-79
2021/06/05 07:32:33;;;;;;;6.90;4.50;;;;;;;37.34;25.46;98057.38;5031000;28;20400;-79
2021/06/05 07:34:59;;;;;;;7.18;3.80;;;;;;;36.91;25.20;98046.81;5031431;28;20036;-79
2021/06/05 07:37:24;;;;;;;15.98;4.53;;;;;;;36.65;25.82;98062.22;5060909;28;20123;-79
2021/06/05 07:39:50;;;;;;;8.13;4.47;;;;;;;37.32;25.02;98067.94;5069027;28;20032;-79
2021/06/05 07:42:16;;;;;;;6.88;4.10;;;;;;;37.82;25.28;98067.94;5034573;28;20036;-78
2021/06/05 07:44:41;;;;;;;7.45;3.33;;;;;;;37.47;23.44;98033.91;5051003;28;20072;-78
2021/06/05 07:47:07;;;;;;;18.52;8.93;;;;;;;36.88;24.29;98058.47;5068853;28;20028;-78
2021/06/05 07:49:36;;;;;;;10.48;4.97;;;;;;;36.87;23.82;98049.25;5050868;28;20115;-78
2021/06/05 07:52:06;;;;;;;5.60;3.47;;;;;;;36.81;24.17;98044.69;5050909;28;20025;-79
2021/06/05 07:54:32;;;;;;;9.48;7.50;;;;;;;37.83;23.57;98052.88;5050600;28;20468;-78
2021/06/05 07:56:57;;;;;;;5.82;3.38;;;;;;;37.52;23.26;98050.72;5042727;28;20024;-78
2021/06/05 07:59:25;;;;;;;6.68;3.90;;;;;;;37.61;23.76;98061.22;5034285;28;20475;-78
2021/06/05 08:01:52;;;;;;;4.88;3.00;;;;;;;36.92;24.37;98052.13;5050547;28;20032;-78
2021/06/05 08:04:18;;;;;;;8.80;3.90;;;;;;;37.94;25.16;98057.53;5050606;28;20031;-78
2021/06/05 08:06:44;;;;;;;3.90;3.50;;;;;;;37.47;23.99;98040.34;5050195;28;20340;-78
2021/06/05 08:09:11;;;;;;;6.68;3.00;;;;;;;37.57;23.63;98039.63;5050748;28;20032;-79
2021/06/05 08:11:37;;;;;;;14.45;4.00;;;;;;;38.13;23.81;98046.91;5050763;28;20039;-78
2021/06/05 08:14:04;;;;;;;6.50;3.00;;;;;;;38.88;22.80;98055.47;5050422;28;20119;-78
2021/06/05 08:16:35;;;;;;;14.73;3.20;;;;;;;38.94;22.81;98043.22;5015779;28;20065;-78
2021/06/05 08:19:02;;;;;;;10.02;2.80;;;;;;;38.99;21.52;98032.91;5024321;28;20044;-78
2021/06/05 08:21:27;;;;;;;6.50;2.70;;;;;;;39.61;21.67;98042.69;5068512;28;20029;-78
2021/06/05 08:23:53;;;;;;;5.00;2.65;;;;;;;39.52;22.36;98045.16;5016711;28;20025;-78
2021/06/05 08:26:18;;;;;;;7.90;3.60;;;;;;;38.88;22.11;98031.13;5052469;28;20035;-78
2021/06/05 08:28:44;;;;;;;3.47;2.95;;;;;;;40.02;20.21;98025.91;5050517;28;20025;-78
2021/06/05 08:31:12;;;;;;;3.25;2.70;;;;;;;39.89;19.89;98023.59;5033467;28;20446;-78
2021/06/05 08:33:38;;;;;;;3.30;3.00;;;;;;;39.55;21.83;98016.59;5069007;28;20161;-78
2021/06/05 08:36:06;;;;;;;9.50;2.80;;;;;;;39.24;21.14;98006.28;5050242;28;20072;-79
2021/06/05 08:38:32;;;;;;;2.67;2.47;;;;;;;38.92;20.54;98003.41;5050211;28;20035;-79
2021/06/05 08:41:05;;;;;;;8.35;3.75;;;;;;;39.28;20.36;98013.03;5033253;28;20032;-79
2021/06/05 08:43:48;;;;;;;3.17;2.35;;;;;;;40.23;19.35;98012.03;5050241;28;20039;-79
2021/06/05 08:46:18;;;;;;;12.27;3.72;;;;;;;39.70;21.28;98011.13;5050112;28;20454;-79
2021/06/05 08:48:44;;;;;;;8.27;3.63;;;;;;;39.75;20.56;98015.94;5047619;28;20101;-79
2021/06/05 08:51:09;;;;;;;4.70;3.08;;;;;;;38.77;21.31;98011.63;5047948;28;20484;-79
2021/06/05 08:53:35;;;;;;;5.28;3.22;;;;;;;38.10;23.53;98019.47;5047930;28;20100;-78
2021/06/05 08:56:02;;;;;;;5.00;3.67;;;;;;;37.52;23.03;98004.09;5031144;28;20403;-78
2021/06/05 08:58:35;;;;;;;6.03;3.00;;;;;;;37.02;21.83;98001.28;5049893;28;20123;-79
2021/06/05 09:01:17;;;;;;;3.67;2.83;;;;;;;35.47;23.52;97975.38;5041196;28;20377;-78
2021/06/05 09:03:44;;;;;;;4.07;2.55;;;;;;;36.02;23.74;98000.06;5027926;28;20036;-79
2021/06/05 09:06:19;;;;;;;4.00;2.70;;;;;;;34.35;25.65;97995.81;5031818;28;20024;-78
2021/06/05 09:08:45;;;;;;;9.45;5.93;;;;;;;33.88;27.68;98007.69;5032077;28;20028;-79
2021/06/05 09:11:12;;;;;;;5.22;3.00;;;;;;;34.00;27.94;98003.06;5049868;28;20029;-78
2021/06/05 09:13:57;;;;;;;6.00;4.05;;;;;;;35.06;25.62;97995.81;5049930;28;20070;-78
2021/06/05 09:16:34;;;;;;;6.20;3.30;;;;;;;35.86;24.14;97988.59;5068123;28;20104;-78
2021/06/05 09:19:08;;;;;;;4.25;3.83;;;;;;;36.17;23.75;97975.34;5025596;28;20029;-79
2021/06/05 09:21:35;;;;;;;9.02;5.32;;;;;;;36.80;22.92;97976.03;5069494;28;20411;-79
2021/06/05 09:24:30;;;;;;;17.83;10.05;;;;;;;38.47;21.98;97973.00;5033335;28;20484;-79
2021/06/05 09:27:13;;;;;;;5.70;2.63;;;;;;;39.16;20.98;97956.34;5069728;28;20392;-79
2021/06/05 09:29:58;;;;;;;4.05;2.60;;;;;;;38.88;21.67;97954.69;5062680;28;20043;-79
2021/06/05 09:32:31;;;;;;;4.60;2.70;;;;;;;38.83;20.67;97952.69;5033493;28;20028;-79
2021/06/05 09:35:15;;;;;;;3.35;2.60;;;;;;;37.73;22.12;97946.56;5070924;28;20075;-79
2021/06/05 09:37:46;;;;;;;32.25;26.23;;;;;;;37.80;22.87;97959.25;5052930;28;20470;-79
2021/06/05 09:40:33;;;;;;;13.10;3.92;;;;;;;37.43;22.79;97946.94;5048285;28;20028;-79
2021/06/05 09:43:08;;;;;;;9.50;4.25;;;;;;;37.88;24.14;97956.00;5038679;28;20416;-79
2021/06/05 09:45:40;;;;;;;10.48;4.00;;;;;;;38.08;24.35;97952.66;5052784;28;20024;-79
2021/06/05 09:48:35;;;;;;;3.83;3.13;;;;;;;38.61;21.46;97937.88;5043882;28;20436;-79
2021/06/05 09:51:04;;;;;;;10.05;3.17;;;;;;;34.72;24.85;97933.47;5055623;28;20462;-79
2021/06/05 09:53:33;;;;;;;5.28;3.30;;;;;;;33.05;27.61;97918.44;5073175;28;20055;-79
2021/06/05 09:56:21;;;;;;;9.88;3.88;;;;;;;31.25;28.73;97942.03;5073486;28;20434;-78
2021/06/05 09:58:47;;;;;;;6.75;3.10;;;;;;;29.81;31.96;97939.91;5072803;28;20107;-79
2021/06/05 10:01:21;;;;;;;11.65;4.28;;;;;;;29.27;32.29;97932.44;5055502;28;20087;-79
2021/06/05 10:03:49;;;;;;;3.60;2.83;;;;;;;30.81;29.71;97923.34;5055813;28;20032;-78
2021/06/05 10:06:29;;;;;;;6.50;4.03;;;;;;;33.19;28.48;97929.22;5055746;28;20020;-78
2021/06/05 10:08:55;;;;;;;16.38;3.50;;;;;;;35.09;25.97;97928.59;5059434;28;20028;-79
2021/06/05 10:11:37;;;;;;;39.08;6.00;;;;;;;36.29;25.80;97923.16;5035378;28;20025;-79
2021/06/05 10:14:10;;;;;;;16.30;4.45;;;;;;;37.30;23.47;97911.00;5018807;28;20032;-79
2021/06/05 10:16:40;;;;;;;7.18;2.80;;;;;;;37.43;21.80;97905.06;5035116;28;20075;-79
2021/06/05 10:19:19;;;;;;;9.07;3.95;;;;;;;37.26;21.86;97896.72;5035342;28;20102;-79
2021/06/05 10:21:47;;;;;;;4.93;2.40;;;;;;;36.08;21.94;97882.06;5035365;28;20127;-79
2021/06/05 10:24:40;;;;;;;10.13;2.60;;;;;;;36.41;22.15;97882.13;5043815;28;20069;-79
2021/06/05 10:27:22;;;;;;;5.43;2.15;;;;;;;36.31;22.06;97862.44;5054012;28;20029;-79
2021/06/05 10:29:50;;;;;;;3.53;2.40;;;;;;;35.77;21.28;97864.72;5055371;28;20371;-79
2021/06/05 10:32:22;;;;;;;7.80;2.22;;;;;;;33.32;25.29;97874.69;5054851;28;20454;-79
2021/06/05 10:35:05;;;;;;;4.40;3.38;;;;;;;33.10;26.02;97894.53;5038229;28;20115;-79
2021/06/05 10:37:34;;;;;;;3.00;2.40;;;;;;;32.69;25.74;97881.28;5052563;28;20040;-78
2021/06/05 10:40:02;;;;;;;5.05;2.75;;;;;;;33.29;25.96;97875.97;5040980;28;20035;-78
2021/06/05 10:42:49;;;;;;;6.15;3.20;;;;;;;33.75;23.55;97880.97;5054980;28;20025;-78
2021/06/05 10:45:17;;;;;;;24.55;4.55;;;;;;;32.35;23.30;97853.19;5054794;28;20108;-78
2021/06/05 10:47:49;;;;;;;4.30;2.35;;;;;;;32.50;23.14;97868.41;5054701;28;20028;-79
2021/06/05 10:50:25;;;;;;;4.00;2.10;;;;;;;33.08;23.26;97859.78;5047016;28;20029;-79
2021/06/05 10:52:59;;;;;;;11.75;3.22;;;;;;;34.20;26.24;97873.97;5034757;28;20032;-79
2021/06/05 10:55:34;;;;;;;7.07;3.20;;;;;;;34.79;22.63;97850.75;5069718;28;20529;-79
2021/06/05 10:58:08;;;;;;;4.88;3.22;;;;;;;34.30;23.96;97865.06;5054643;28;20081;-79
2021/06/05 11:00:51;;;;;;;5.78;2.30;;;;;;;35.05;21.02;97868.06;5072131;28;20555;-79
2021/06/05 11:03:23;;;;;;;2.47;2.08;;;;;;;33.59;21.36;97840.88;5054559;28;20023;-79
2021/06/05 11:06:09;;;;;;;3.85;2.10;;;;;;;33.20;22.82;97827.44;5072293;28;20036;-79
2021/06/05 11:08:54;;;;;;;2.47;2.28;;;;;;;33.14;22.72;97834.75;5052264;28;20123;-78
2021/06/05 11:11:35;;;;;;;3.15;2.35;;;;;;;34.30;22.07;97845.63;5034705;28;20031;-78
2021/06/05 11:14:23;;;;;;;5.32;2.67;;;;;;;33.97;25.91;97856.34;5052248;28;20036;-78
2021/06/05 11:16:58;;;;;;;4.00;2.80;;;;;;;33.50;25.73;97844.97;5039297;28;20114;-78
2021/06/05 11:19:42;;;;;;;7.50;2.67;;;;;;;33.99;25.45;97856.97;5052092;28;20035;-78
2021/06/05 11:22:17;;;;;;;4.93;2.70;;;;;;;33.97;24.36;97845.22;5051808;28;20029;-78
2021/06/05 11:24:45;;;;;;;6.13;2.40;;;;;;;33.47;24.43;97839.06;5062839;28;20483;-78
2021/06/05 11:27:37;;;;;;;3.03;2.50;;;;;;;33.40;26.41;97841.06;5054007;28;20069;-78
2021/06/05 11:30:28;;;;;;;2.60;2.40;;;;;;;32.49;25.72;97818.75;5047721;28;20075;-78
2021/06/05 11:33:02;;;;;;;3.87;1.93;;;;;;;32.17;25.94;97840.97;5051613;28;20095;-78
2021/06/05 11:35:42;;;;;;;4.40;2.80;;;;;;;33.12;25.97;97845.25;5052159;28;20283;-78